Pagina principale
METAR-TAF:

METAR-TAF

Aeroporti :

Monte Scuro, Italia

latitudine: 39-20N, longitudine: 016-24E, altezza: 1710 m

Osservazione

Il bollettino è stato emesso 1 ora e 17 minuti fa, alle 06:55 UTC
Vento 7 kt da nord
Temperature 8°C
Umidità 76%
Pressione 1018 hPa
Visibilità 10 km o più
Nubi sparse ad un'altezza di 1000 ft
Nubi sparse ad un'altezza di 5000 ft

METAR: LIBQ 270655Z 35007KT 9999 SCT010 SCT050 08/04 Q1018 RMK BKN MON LIB VAL NIL VIS MIN 9999

Ora: 10:12 (08:12 UTC)


TAF: mancante

Osservazioni e previsioni meteorologiche di più di 4000 aeroporti (messaggi METAR e TAF).

Le stazioni disponibili sono rappresentate dai dischi gialli e rossi sulla carta.

Puntare il mouse per vedere il nome della stazione.

Clicca sopra per visualizzare le osservazioni e previsioni meteorologiche.

Per cambiare la mappa : fare clic sui pulsanti verdi con una croce nera per ingrandire, il pulsante verde con un trattino per diminuire, o sulla freccia verde per le mappe adiacenti.


METAR-TAF: